Time;durP1;ratioP1;P1;durP2;ratioP2;P2;SDS_P1;SDS_P2;PMS_P1;PMS_P2;Temp;Humidity;BMP_temperature;BMP_pressure;BME280_temperature;BME280_humidity;BME280_pressure;Samples;Min_cycle;Max_cycle;Signal;HPM_P1;HPM_P2
2023/10/07 00:00:32;;;;;;;22.53;6.30;;;;;;;;;;5067321;28;20048;-60
2023/10/07 00:02:59;;;;;;;22.00;5.90;;;;;;;;;;5067012;28;20071;-60
2023/10/07 00:05:28;;;;;;;21.17;6.10;;;;;;;;;;5067864;28;20127;-60
2023/10/07 00:08:01;;;;;;;20.63;5.40;;;;;;;;;;5068086;28;20396;-61
2023/10/07 00:10:30;;;;;;;17.23;4.60;;;;;;;;;;5066779;28;20036;-60
2023/10/07 00:13:03;;;;;;;16.77;5.00;;;;;;;;;;5067795;28;20098;-60
2023/10/07 00:15:30;;;;;;;13.35;4.63;;;;;;;;;;5067178;28;20052;-60
2023/10/07 00:18:12;;;;;;;20.30;5.30;;;;;;;;;;5067480;28;20036;-60
2023/10/07 00:20:44;;;;;;;14.37;4.57;;;;;;;;;;5045981;28;20507;-61
2023/10/07 00:23:12;;;;;;;18.40;5.18;;;;;;;;;;5046343;28;20076;-60
2023/10/07 00:25:38;;;;;;;22.20;5.20;;;;;;;;;;5047152;28;20052;-60
2023/10/07 00:28:27;;;;;;;21.10;6.03;;;;;;;;;;5046484;28;20527;-60
2023/10/07 00:30:55;;;;;;;24.33;5.43;;;;;;;;;;5047643;28;20052;-60
2023/10/07 00:33:21;;;;;;;24.07;5.13;;;;;;;;;;5046175;28;20183;-60
2023/10/07 00:35:50;;;;;;;24.37;6.47;;;;;;;;;;5046435;28;20125;-61
2023/10/07 00:38:16;;;;;;;17.93;5.90;;;;;;;;;;5047374;28;20084;-60
2023/10/07 00:40:46;;;;;;;19.07;5.63;;;;;;;;;;5047646;28;20139;-60
2023/10/07 00:43:25;;;;;;;22.97;5.23;;;;;;;;;;5047655;28;20052;-60
2023/10/07 00:45:54;;;;;;;22.40;4.60;;;;;;;;;;5047310;28;20048;-60
2023/10/07 00:48:21;;;;;;;20.80;5.57;;;;;;;;;;5060337;28;20060;-60
2023/10/07 00:50:48;;;;;;;20.73;5.30;;;;;;;;;;5048689;28;20045;-60
2023/10/07 00:53:14;;;;;;;15.40;5.43;;;;;;;;;;5047581;28;20082;-60
2023/10/07 00:55:41;;;;;;;18.97;5.63;;;;;;;;;;5047280;28;20045;-60
2023/10/07 00:58:15;;;;;;;23.77;5.30;;;;;;;;;;5046525;28;20057;-60
2023/10/07 01:00:46;;;;;;;17.20;5.37;;;;;;;;;;5047258;28;20056;-60
2023/10/07 01:03:16;;;;;;;18.20;5.57;;;;;;;;;;5047571;28;21054;-60
2023/10/07 01:08:27;;;;;;;22.27;5.90;;;;;;;;;;5047026;28;20430;-60
2023/10/07 01:11:06;;;;;;;23.10;6.05;;;;;;;;;;5045670;28;20099;-59
2023/10/07 01:13:32;;;;;;;16.33;5.10;;;;;;;;;;5049062;28;20056;-60
2023/10/07 01:15:59;;;;;;;17.43;6.20;;;;;;;;;;5051014;28;20037;-60
2023/10/07 01:18:27;;;;;;;25.00;5.50;;;;;;;;;;5050280;28;20095;-60
2023/10/07 01:23:23;;;;;;;20.87;5.70;;;;;;;;;;5070844;28;20402;-60
2023/10/07 01:25:53;;;;;;;21.50;6.43;;;;;;;;;;5070358;28;20423;-60
2023/10/07 01:28:20;;;;;;;29.13;6.60;;;;;;;;;;5053270;28;20513;-60
2023/10/07 01:31:08;;;;;;;19.43;6.10;;;;;;;;;;5070608;28;20045;-60
2023/10/07 01:33:38;;;;;;;24.27;6.03;;;;;;;;;;5070401;28;20086;-60
2023/10/07 01:36:16;;;;;;;17.17;5.30;;;;;;;;;;5053336;28;20045;-60
2023/10/07 01:38:50;;;;;;;23.77;6.23;;;;;;;;;;5050011;28;20107;-60
2023/10/07 01:41:18;;;;;;;18.40;5.97;;;;;;;;;;5050128;28;20392;-60
2023/10/07 01:44:00;;;;;;;17.20;5.30;;;;;;;;;;5055590;28;20044;-60
2023/10/07 01:46:30;;;;;;;19.53;7.23;;;;;;;;;;5070195;28;20071;-60
2023/10/07 01:48:57;;;;;;;18.57;5.40;;;;;;;;;;5066498;28;20052;-60
2023/10/07 01:51:26;;;;;;;18.97;5.00;;;;;;;;;;5050340;28;20079;-60
2023/10/07 01:53:56;;;;;;;18.87;6.60;;;;;;;;;;5049677;28;20053;-60
2023/10/07 01:56:22;;;;;;;19.70;5.87;;;;;;;;;;5050030;28;20049;-60
2023/10/07 01:58:48;;;;;;;21.90;5.93;;;;;;;;;;5050258;28;20052;-60
2023/10/07 02:01:17;;;;;;;19.97;5.77;;;;;;;;;;5049892;28;20139;-60
2023/10/07 02:03:46;;;;;;;15.33;5.83;;;;;;;;;;5049828;28;20048;-60
2023/10/07 02:06:16;;;;;;;18.53;5.40;;;;;;;;;;5059079;28;20048;-60
2023/10/07 02:08:42;;;;;;;23.03;5.50;;;;;;;;;;5055240;28;20072;-60
2023/10/07 02:11:09;;;;;;;19.63;5.70;;;;;;;;;;5050050;28;20072;-60
2023/10/07 02:13:35;;;;;;;18.43;5.60;;;;;;;;;;5049657;28;20049;-60
2023/10/07 02:16:05;;;;;;;17.83;5.10;;;;;;;;;;5049434;28;20510;-60
2023/10/07 02:18:35;;;;;;;25.30;6.43;;;;;;;;;;5049758;28;20805;-60
2023/10/07 02:21:07;;;;;;;20.83;5.77;;;;;;;;;;5049393;28;20077;-60
2023/10/07 02:23:37;;;;;;;15.93;5.57;;;;;;;;;;5047548;28;20036;-60
2023/10/07 02:26:06;;;;;;;27.37;6.90;;;;;;;;;;5048475;28;20059;-60
2023/10/07 02:28:33;;;;;;;21.70;6.33;;;;;;;;;;5049557;28;20056;-60
2023/10/07 02:31:02;;;;;;;15.57;5.40;;;;;;;;;;5062477;28;20055;-60
2023/10/07 02:33:29;;;;;;;19.07;5.60;;;;;;;;;;5069060;28;20564;-60
2023/10/07 02:35:56;;;;;;;22.37;5.93;;;;;;;;;;5069325;28;20048;-60
2023/10/07 02:38:35;;;;;;;15.23;5.60;;;;;;;;;;5068855;28;20136;-60
2023/10/07 02:41:07;;;;;;;16.10;5.40;;;;;;;;;;5069325;28;20067;-60
2023/10/07 02:43:34;;;;;;;21.33;5.77;;;;;;;;;;5068748;28;20135;-60
2023/10/07 02:46:02;;;;;;;18.10;5.90;;;;;;;;;;5069143;28;20050;-60
2023/10/07 02:48:34;;;;;;;17.63;6.87;;;;;;;;;;5068671;28;20548;-60
2023/10/07 02:51:09;;;;;;;22.95;6.07;;;;;;;;;;5068861;28;20059;-60
2023/10/07 02:53:35;;;;;;;21.57;6.40;;;;;;;;;;5069131;28;20071;-60
2023/10/07 02:56:05;;;;;;;23.77;6.23;;;;;;;;;;5064293;28;20045;-60
2023/10/07 02:58:41;;;;;;;16.90;6.37;;;;;;;;;;5048636;28;20094;-60
2023/10/07 03:01:13;;;;;;;20.20;5.87;;;;;;;;;;5048920;28;20131;-60
2023/10/07 03:03:40;;;;;;;17.07;5.53;;;;;;;;;;5048583;28;20053;-60
2023/10/07 03:06:07;;;;;;;20.20;7.67;;;;;;;;;;5048323;28;20084;-60
2023/10/07 03:11:13;;;;;;;23.30;6.43;;;;;;;;;;5048079;28;20055;-64
2023/10/07 03:13:49;;;;;;;20.93;6.43;;;;;;;;;;5048596;28;20040;-62
2023/10/07 03:19:06;;;;;;;20.40;6.40;;;;;;;;;;5048722;28;20056;-60
2023/10/07 03:24:10;;;;;;;22.73;6.37;;;;;;;;;;5048339;28;20060;-60
2023/10/07 03:26:37;;;;;;;12.87;5.63;;;;;;;;;;5048196;28;20053;-60
2023/10/07 03:29:06;;;;;;;21.57;6.17;;;;;;;;;;5048445;28;20408;-60
2023/10/07 03:31:47;;;;;;;14.83;5.67;;;;;;;;;;5047922;28;20045;-60
2023/10/07 03:34:14;;;;;;;21.60;5.87;;;;;;;;;;5048527;28;20064;-60
2023/10/07 03:36:57;;;;;;;24.07;6.43;;;;;;;;;;5047177;28;20036;-60
2023/10/07 03:39:27;;;;;;;16.97;5.20;;;;;;;;;;5048187;28;20049;-60
2023/10/07 03:42:00;;;;;;;20.70;5.77;;;;;;;;;;5048322;28;20064;-60
2023/10/07 03:44:27;;;;;;;21.57;6.60;;;;;;;;;;5047520;28;20439;-60
2023/10/07 03:46:54;;;;;;;23.30;5.60;;;;;;;;;;5047790;28;20048;-60
2023/10/07 03:49:21;;;;;;;19.20;5.67;;;;;;;;;;5048388;28;20053;-60
2023/10/07 03:54:32;;;;;;;21.53;7.00;;;;;;;;;;5047761;28;20085;-60
2023/10/07 03:57:00;;;;;;;24.73;7.83;;;;;;;;;;5047502;28;20396;-60
2023/10/07 03:59:27;;;;;;;18.17;5.40;;;;;;;;;;5048989;28;20048;-60
2023/10/07 04:01:53;;;;;;;21.53;5.13;;;;;;;;;;5047955;28;20060;-60
2023/10/07 04:04:22;;;;;;;19.80;5.47;;;;;;;;;;5062489;28;20040;-61
2023/10/07 04:06:48;;;;;;;26.03;6.30;;;;;;;;;;5067333;28;20474;-61
2023/10/07 04:09:14;;;;;;;18.47;6.20;;;;;;;;;;5068184;28;20090;-61
2023/10/07 04:11:48;;;;;;;19.10;6.97;;;;;;;;;;5067949;28;20053;-60
2023/10/07 04:14:30;;;;;;;19.30;6.30;;;;;;;;;;5067704;28;20071;-61
2023/10/07 04:17:05;;;;;;;16.58;5.93;;;;;;;;;;5068055;28;20426;-61
2023/10/07 04:19:38;;;;;;;22.07;5.80;;;;;;;;;;5067418;28;20056;-60
2023/10/07 04:22:07;;;;;;;17.27;6.72;;;;;;;;;;5067825;28;20053;-61
2023/10/07 04:24:35;;;;;;;22.13;6.00;;;;;;;;;;5067547;28;20044;-61
2023/10/07 04:27:05;;;;;;;25.53;6.47;;;;;;;;;;5067581;28;20060;-61
2023/10/07 04:29:31;;;;;;;20.43;6.43;;;;;;;;;;5067363;28;20127;-61
2023/10/07 04:31:59;;;;;;;20.80;6.57;;;;;;;;;;5067733;28;20063;-61
2023/10/07 04:34:33;;;;;;;24.03;5.30;;;;;;;;;;5066876;28;20102;-61
2023/10/07 04:39:29;;;;;;;18.40;6.30;;;;;;;;;;5067619;28;20420;-60
2023/10/07 04:41:59;;;;;;;30.37;6.60;;;;;;;;;;5067548;28;21139;-61
2023/10/07 04:50:05;;;;;;;23.03;6.97;;;;;;;;;;5071443;28;20048;-60
2023/10/07 04:52:50;;;;;;;20.97;6.50;;;;;;;;;;5071069;28;20099;-60
2023/10/07 04:55:19;;;;;;;20.20;6.37;;;;;;;;;;5070705;28;20048;-60
2023/10/07 05:00:34;;;;;;;22.30;6.33;;;;;;;;;;5057630;28;20123;-60
2023/10/07 05:03:01;;;;;;;15.60;5.43;;;;;;;;;;5070928;28;20053;-60
2023/10/07 05:05:30;;;;;;;22.13;6.33;;;;;;;;;;5068950;28;20056;-60
2023/10/07 05:08:08;;;;;;;20.03;6.67;;;;;;;;;;5070973;28;20074;-61
2023/10/07 05:10:41;;;;;;;20.17;6.00;;;;;;;;;;5070680;28;20051;-61
2023/10/07 05:13:07;;;;;;;20.85;6.30;;;;;;;;;;5071056;28;20052;-61
2023/10/07 05:15:41;;;;;;;22.30;6.33;;;;;;;;;;5070795;28;20048;-61
2023/10/07 05:18:15;;;;;;;22.37;6.10;;;;;;;;;;5070278;28;20052;-61
2023/10/07 05:20:42;;;;;;;29.20;6.47;;;;;;;;;;5070460;28;20052;-61
2023/10/07 05:23:13;;;;;;;22.27;6.03;;;;;;;;;;5070696;28;20040;-60
2023/10/07 05:25:48;;;;;;;20.83;6.43;;;;;;;;;;5069824;28;20661;-61
2023/10/07 05:28:17;;;;;;;26.97;7.23;;;;;;;;;;5067010;28;20542;-61
2023/10/07 05:30:50;;;;;;;18.50;5.80;;;;;;;;;;5050460;28;20511;-61
2023/10/07 05:33:16;;;;;;;;;;;;;;;;;;5050830;28;20140;-61
2023/10/07 05:35:43;;;;;;;16.33;5.33;;;;;;;;;;5050244;28;20007;-61
2023/10/07 05:38:12;;;;;;;21.17;7.27;;;;;;;;;;5049780;28;20568;-61
2023/10/07 05:40:40;;;;;;;21.07;6.33;;;;;;;;;;5050216;28;20128;-61
2023/10/07 05:43:08;;;;;;;20.33;7.67;;;;;;;;;;5050083;28;20049;-60
2023/10/07 05:45:34;;;;;;;23.10;6.67;;;;;;;;;;5049743;28;20543;-61
2023/10/07 05:48:01;;;;;;;20.50;6.67;;;;;;;;;;5049873;28;20126;-61
2023/10/07 05:50:32;;;;;;;30.27;7.00;;;;;;;;;;5060888;28;20557;-60
2023/10/07 05:52:58;;;;;;;20.70;7.03;;;;;;;;;;5069695;28;20056;-61
2023/10/07 05:55:24;;;;;;;20.37;6.13;;;;;;;;;;5069574;28;20044;-61
2023/10/07 05:57:52;;;;;;;21.33;6.10;;;;;;;;;;5067930;28;20409;-60
2023/10/07 06:00:18;;;;;;;22.77;6.40;;;;;;;;;;5049592;28;20088;-61
2023/10/07 06:02:44;;;;;;;20.90;7.40;;;;;;;;;;5049082;28;20132;-61
2023/10/07 06:05:13;;;;;;;21.83;7.27;;;;;;;;;;5067347;28;20140;-61
2023/10/07 06:07:39;;;;;;;19.80;6.13;;;;;;;;;;5069783;28;20110;-60
2023/10/07 06:10:09;;;;;;;25.47;7.43;;;;;;;;;;5068860;28;20486;-61
2023/10/07 06:12:35;;;;;;;22.87;6.77;;;;;;;;;;5069268;28;20052;-60
2023/10/07 06:15:01;;;;;;;24.20;6.70;;;;;;;;;;5068973;28;20427;-61
2023/10/07 06:17:27;;;;;;;22.27;6.93;;;;;;;;;;5069651;28;20059;-61
2023/10/07 06:19:54;;;;;;;22.83;7.40;;;;;;;;;;5068509;28;20040;-60
2023/10/07 06:22:22;;;;;;;22.07;6.40;;;;;;;;;;5069581;28;20056;-60
2023/10/07 06:24:52;;;;;;;29.53;7.37;;;;;;;;;;5068720;28;20048;-61
2023/10/07 06:27:21;;;;;;;17.13;6.67;;;;;;;;;;5068986;28;20060;-60
2023/10/07 06:29:48;;;;;;;23.73;6.90;;;;;;;;;;5053944;28;20356;-61
2023/10/07 06:32:25;;;;;;;19.83;5.77;;;;;;;;;;5049050;28;20080;-61
2023/10/07 06:34:54;;;;;;;20.47;6.30;;;;;;;;;;5049131;28;20056;-60
2023/10/07 06:37:25;;;;;;;29.30;7.13;;;;;;;;;;5050540;28;20089;-61
2023/10/07 06:39:51;;;;;;;22.30;5.87;;;;;;;;;;5048970;28;20048;-61
2023/10/07 06:42:24;;;;;;;28.27;6.53;;;;;;;;;;5048885;28;20514;-60
2023/10/07 06:44:52;;;;;;;19.17;5.75;;;;;;;;;;5049328;28;20061;-61
2023/10/07 06:47:18;;;;;;;27.90;6.90;;;;;;;;;;5063226;28;20040;-61
2023/10/07 06:49:44;;;;;;;22.77;6.67;;;;;;;;;;5069053;28;20169;-61
2023/10/07 06:52:12;;;;;;;23.43;6.80;;;;;;;;;;5068975;28;20111;-60
2023/10/07 06:54:38;;;;;;;21.97;6.50;;;;;;;;;;5057541;28;20121;-61
2023/10/07 06:57:10;;;;;;;23.37;6.60;;;;;;;;;;5064037;28;20052;-61
2023/10/07 06:59:39;;;;;;;21.97;6.50;;;;;;;;;;5067551;28;20048;-61
2023/10/07 07:02:11;;;;;;;27.37;6.73;;;;;;;;;;5053578;28;20102;-61
2023/10/07 07:04:38;;;;;;;26.70;6.10;;;;;;;;;;5048783;28;20044;-61
2023/10/07 07:07:10;;;;;;;27.40;7.50;;;;;;;;;;5063507;28;20045;-63
2023/10/07 07:12:16;;;;;;;15.77;6.23;;;;;;;;;;5055305;28;20453;-61
2023/10/07 07:14:53;;;;;;;21.37;6.23;;;;;;;;;;5051216;28;20056;-61
2023/10/07 07:17:29;;;;;;;22.37;6.90;;;;;;;;;;5056662;28;20064;-60
2023/10/07 07:22:37;;;;;;;22.47;6.50;;;;;;;;;;5067403;28;20055;-61
2023/10/07 07:25:05;;;;;;;20.40;6.03;;;;;;;;;;5068088;28;20044;-61
2023/10/07 07:27:34;;;;;;;21.70;6.50;;;;;;;;;;5066974;28;20073;-60
2023/10/07 07:30:04;;;;;;;24.67;6.77;;;;;;;;;;5067010;28;20048;-61
2023/10/07 07:32:35;;;;;;;20.40;6.90;;;;;;;;;;5061426;28;20040;-61
2023/10/07 07:35:02;;;;;;;18.70;5.67;;;;;;;;;;5058059;28;20053;-61
2023/10/07 07:37:31;;;;;;;25.33;6.97;;;;;;;;;;5066347;28;20083;-61
2023/10/07 07:39:59;;;;;;;15.60;5.50;;;;;;;;;;5066986;28;20478;-61
2023/10/07 07:42:27;;;;;;;21.87;6.07;;;;;;;;;;5066152;28;20522;-60
2023/10/07 07:44:57;;;;;;;16.83;5.27;;;;;;;;;;5065997;28;20498;-60
2023/10/07 07:47:23;;;;;;;22.93;6.67;;;;;;;;;;5067661;28;20132;-61
2023/10/07 07:49:51;;;;;;;18.70;6.53;;;;;;;;;;5066680;28;20067;-60
2023/10/07 07:52:19;;;;;;;13.50;5.23;;;;;;;;;;5067030;28;20461;-61
2023/10/07 07:54:45;;;;;;;16.40;5.20;;;;;;;;;;5067453;28;20059;-61
2023/10/07 07:57:12;;;;;;;17.10;6.30;;;;;;;;;;5066830;28;20058;-61
2023/10/07 07:59:38;;;;;;;16.73;5.90;;;;;;;;;;5067463;28;20079;-61
2023/10/07 08:02:16;;;;;;;14.83;5.07;;;;;;;;;;5067249;28;20056;-61
2023/10/07 08:04:46;;;;;;;11.77;4.87;;;;;;;;;;5067714;28;20098;-61
2023/10/07 08:07:27;;;;;;;14.27;4.93;;;;;;;;;;5067652;28;20056;-61
2023/10/07 08:09:53;;;;;;;15.63;4.97;;;;;;;;;;5067663;28;20466;-61
2023/10/07 08:12:28;;;;;;;17.17;5.23;;;;;;;;;;5066839;28;20590;-60
2023/10/07 08:14:58;;;;;;;16.90;5.10;;;;;;;;;;5066197;28;20080;-61
2023/10/07 08:17:27;;;;;;;14.43;4.80;;;;;;;;;;5067424;28;20477;-61
2023/10/07 08:19:53;;;;;;;15.47;5.27;;;;;;;;;;5066829;28;20044;-60
2023/10/07 08:22:20;;;;;;;16.07;5.07;;;;;;;;;;5067441;28;20048;-60
2023/10/07 08:24:46;;;;;;;21.70;5.00;;;;;;;;;;5071579;28;20147;-60
2023/10/07 08:30:06;;;;;;;14.93;5.23;;;;;;;;;;5071618;28;20430;-60
2023/10/07 08:32:37;;;;;;;17.30;5.80;;;;;;;;;;5070807;28;20048;-60
2023/10/07 08:35:14;;;;;;;11.90;5.30;;;;;;;;;;5072041;28;20513;-60
2023/10/07 08:37:45;;;;;;;16.40;4.93;;;;;;;;;;5071769;28;20060;-60
2023/10/07 08:40:14;;;;;;;19.70;5.07;;;;;;;;;;5071315;28;20036;-60
2023/10/07 08:42:47;;;;;;;18.17;4.80;;;;;;;;;;5071431;28;20060;-60
2023/10/07 08:45:14;;;;;;;16.67;4.30;;;;;;;;;;5070928;28;20056;-60
2023/10/07 08:47:49;;;;;;;14.40;5.27;;;;;;;;;;5071307;28;20049;-61
2023/10/07 08:50:24;;;;;;;20.47;5.70;;;;;;;;;;5071024;28;20079;-61
2023/10/07 08:53:07;;;;;;;14.17;4.60;;;;;;;;;;5070513;28;20460;-60
2023/10/07 08:55:33;;;;;;;13.10;4.80;;;;;;;;;;5070968;28;20068;-60
2023/10/07 08:58:03;;;;;;;13.07;4.80;;;;;;;;;;5070828;28;20505;-63
2023/10/07 09:00:39;;;;;;;14.80;4.70;;;;;;;;;;5070932;28;20091;-60
2023/10/07 09:03:14;;;;;;;17.13;4.43;;;;;;;;;;5070838;28;20044;-60
2023/10/07 09:05:40;;;;;;;13.37;4.10;;;;;;;;;;5070663;28;20052;-61
2023/10/07 09:08:11;;;;;;;12.60;4.07;;;;;;;;;;5070516;28;20052;-61
2023/10/07 09:10:37;;;;;;;9.60;3.90;;;;;;;;;;5070574;28;20053;-61
2023/10/07 09:13:06;;;;;;;17.50;3.83;;;;;;;;;;5070585;28;20087;-60
2023/10/07 09:15:36;;;;;;;14.10;3.90;;;;;;;;;;5070675;28;20090;-61
2023/10/07 09:18:03;;;;;;;12.70;3.67;;;;;;;;;;5070488;28;20044;-61
2023/10/07 09:20:29;;;;;;;12.30;3.70;;;;;;;;;;5070001;28;20044;-61
2023/10/07 09:23:15;;;;;;;18.50;4.00;;;;;;;;;;5070500;28;20038;-60
2023/10/07 09:25:47;;;;;;;15.20;4.90;;;;;;;;;;5070353;28;20051;-61
2023/10/07 09:28:13;;;;;;;12.37;3.90;;;;;;;;;;5070561;28;20055;-60
2023/10/07 09:33:13;;;;;;;10.40;4.10;;;;;;;;;;5069950;28;20052;-61
2023/10/07 09:35:46;;;;;;;11.67;3.40;;;;;;;;;;5069931;28;20056;-61
2023/10/07 09:38:22;;;;;;;12.67;3.37;;;;;;;;;;5070207;28;20125;-61
2023/10/07 09:43:27;;;;;;;10.37;4.40;;;;;;;;;;5070134;28;20139;-62
2023/10/07 09:45:53;;;;;;;13.97;3.57;;;;;;;;;;5069977;28;20445;-61
2023/10/07 09:48:31;;;;;;;11.27;3.93;;;;;;;;;;5070228;28;20049;-61
2023/10/07 09:50:58;;;;;;;13.77;4.27;;;;;;;;;;5069915;28;20045;-62
2023/10/07 09:53:43;;;;;;;13.13;3.37;;;;;;;;;;5069694;28;20506;-61
2023/10/07 09:56:12;;;;;;;10.90;4.27;;;;;;;;;;5070076;28;20048;-61
2023/10/07 09:58:48;;;;;;;9.13;3.50;;;;;;;;;;5069936;28;20048;-61
2023/10/07 10:01:37;;;;;;;15.60;4.43;;;;;;;;;;5069168;28;20445;-61
2023/10/07 10:04:06;;;;;;;14.33;4.20;;;;;;;;;;5069721;28;20451;-61
2023/10/07 10:06:55;;;;;;;14.80;3.97;;;;;;;;;;5069927;28;20145;-61
2023/10/07 10:09:29;;;;;;;16.30;4.73;;;;;;;;;;5059359;28;20052;-61
2023/10/07 10:12:17;;;;;;;16.67;4.40;;;;;;;;;;5068936;28;20082;-61
2023/10/07 10:14:56;;;;;;;12.33;4.00;;;;;;;;;;5069261;28;20051;-61
2023/10/07 10:17:53;;;;;;;13.97;4.70;;;;;;;;;;5069622;28;20525;-61
2023/10/07 10:20:21;;;;;;;14.70;5.30;;;;;;;;;;5064865;28;20088;-61
2023/10/07 10:22:53;;;;;;;9.73;4.40;;;;;;;;;;5069022;28;20479;-61
2023/10/07 10:25:25;;;;;;;16.07;4.53;;;;;;;;;;5069262;28;20529;-61
2023/10/07 10:27:58;;;;;;;16.73;4.53;;;;;;;;;;5069046;28;20518;-61
2023/10/07 10:30:24;;;;;;;11.93;4.25;;;;;;;;;;5069437;28;20052;-62
2023/10/07 10:32:57;;;;;;;11.63;3.87;;;;;;;;;;5069030;28;20139;-61
2023/10/07 10:35:24;;;;;;;13.10;4.15;;;;;;;;;;5068778;28;20048;-61
2023/10/07 10:37:57;;;;;;;14.90;4.23;;;;;;;;;;5068788;28;20507;-61
2023/10/07 10:40:24;;;;;;;12.85;4.65;;;;;;;;;;5067714;28;20047;-61
2023/10/07 10:42:50;;;;;;;14.17;4.00;;;;;;;;;;5069152;28;20047;-62
2023/10/07 10:45:34;;;;;;;16.07;4.60;;;;;;;;;;5068353;28;20045;-61
2023/10/07 10:48:00;;;;;;;11.13;4.47;;;;;;;;;;5066941;28;20040;-61
2023/10/07 10:50:28;;;;;;;11.87;4.07;;;;;;;;;;5067388;28;20055;-61
2023/10/07 10:52:55;;;;;;;15.97;4.80;;;;;;;;;;5068582;28;20045;-61
2023/10/07 10:55:24;;;;;;;19.27;5.40;;;;;;;;;;5068116;28;20085;-61
2023/10/07 10:57:50;;;;;;;16.73;4.90;;;;;;;;;;5068437;28;20044;-61
2023/10/07 11:00:22;;;;;;;15.10;5.13;;;;;;;;;;5068612;28;20047;-61
2023/10/07 11:02:50;;;;;;;15.77;5.03;;;;;;;;;;5068603;28;20049;-61
2023/10/07 11:05:16;;;;;;;14.67;4.93;;;;;;;;;;5068181;28;20056;-61
2023/10/07 11:07:50;;;;;;;13.17;4.90;;;;;;;;;;5068180;28;20043;-61
2023/10/07 11:10:23;;;;;;;13.33;4.40;;;;;;;;;;5068154;28;20059;-62
2023/10/07 11:12:52;;;;;;;15.43;5.25;;;;;;;;;;5068266;28;20056;-61
2023/10/07 11:15:24;;;;;;;16.50;3.97;;;;;;;;;;5067624;28;20094;-61
2023/10/07 11:18:12;;;;;;;16.13;4.78;;;;;;;;;;5068174;28;20048;-61
2023/10/07 11:20:43;;;;;;;16.77;4.37;;;;;;;;;;5067949;28;20091;-61
2023/10/07 11:23:10;;;;;;;13.37;5.17;;;;;;;;;;5068415;28;20418;-61
2023/10/07 11:25:41;;;;;;;11.63;4.13;;;;;;;;;;5068071;28;20048;-61
2023/10/07 11:28:09;;;;;;;16.50;5.13;;;;;;;;;;5067566;28;20041;-62
2023/10/07 11:30:48;;;;;;;14.23;4.53;;;;;;;;;;5067967;28;20370;-61
2023/10/07 11:33:16;;;;;;;14.17;4.80;;;;;;;;;;5068048;28;20049;-61
2023/10/07 11:35:42;;;;;;;16.80;5.50;;;;;;;;;;5067749;28;20084;-61
2023/10/07 11:38:09;;;;;;;15.70;4.93;;;;;;;;;;5067722;28;20052;-61
2023/10/07 11:40:35;;;;;;;16.30;5.30;;;;;;;;;;5067844;28;20091;-61
2023/10/07 11:43:04;;;;;;;13.93;4.60;;;;;;;;;;5067569;28;20390;-61
2023/10/07 11:45:33;;;;;;;14.47;4.10;;;;;;;;;;5067807;28;20051;-61
2023/10/07 11:47:59;;;;;;;18.33;4.67;;;;;;;;;;5067473;28;20102;-61
2023/10/07 11:50:29;;;;;;;17.50;5.13;;;;;;;;;;5067932;28;20048;-61
2023/10/07 11:52:55;;;;;;;18.43;5.03;;;;;;;;;;5067208;28;20087;-61
2023/10/07 11:55:21;;;;;;;15.73;5.60;;;;;;;;;;5067974;28;20040;-61
2023/10/07 11:57:47;;;;;;;15.90;5.00;;;;;;;;;;5066970;28;20045;-61
2023/10/07 12:00:23;;;;;;;16.67;5.23;;;;;;;;;;5067701;28;20084;-61
2023/10/07 12:02:57;;;;;;;19.40;5.53;;;;;;;;;;5067484;28;20086;-62
2023/10/07 12:05:24;;;;;;;15.40;4.83;;;;;;;;;;5067363;28;20053;-63
2023/10/07 12:07:50;;;;;;;15.03;5.40;;;;;;;;;;5067747;28;20080;-67
2023/10/07 12:10:17;;;;;;;13.57;4.23;;;;;;;;;;5067794;28;20079;-62
2023/10/07 12:12:43;;;;;;;13.20;4.43;;;;;;;;;;5067108;28;20048;-61
2023/10/07 12:15:10;;;;;;;11.80;4.33;;;;;;;;;;5067537;28;20092;-61
2023/10/07 12:17:36;;;;;;;14.03;5.10;;;;;;;;;;5067185;28;20059;-61
2023/10/07 12:20:03;;;;;;;14.83;4.37;;;;;;;;;;5067144;28;20056;-61
2023/10/07 12:22:29;;;;;;;12.70;4.70;;;;;;;;;;5067482;28;20052;-61
2023/10/07 12:24:55;;;;;;;14.10;5.30;;;;;;;;;;5067484;28;20040;-61
2023/10/07 12:27:21;;;;;;;14.93;4.90;;;;;;;;;;5066851;28;20049;-61
2023/10/07 12:29:49;;;;;;;13.57;5.20;;;;;;;;;;5067206;28;20094;-61
2023/10/07 12:32:15;;;;;;;11.00;4.57;;;;;;;;;;5067185;28;20040;-61
2023/10/07 12:34:47;;;;;;;13.87;4.77;;;;;;;;;;5066867;28;20577;-61
2023/10/07 12:37:14;;;;;;;13.90;4.60;;;;;;;;;;5067253;28;20479;-61
2023/10/07 12:39:41;;;;;;;13.33;5.00;;;;;;;;;;5066550;28;20053;-61
2023/10/07 12:42:07;;;;;;;10.03;4.40;;;;;;;;;;5067339;28;20045;-61
2023/10/07 12:44:34;;;;;;;11.67;4.67;;;;;;;;;;5067172;28;20131;-61
2023/10/07 12:47:00;;;;;;;17.97;5.90;;;;;;;;;;5066473;28;21343;-61
2023/10/07 12:49:27;;;;;;;10.30;4.67;;;;;;;;;;5067243;28;20140;-61
2023/10/07 12:51:53;;;;;;;10.53;4.30;;;;;;;;;;5066992;28;20138;-61
2023/10/07 12:54:21;;;;;;;13.73;4.60;;;;;;;;;;5066833;28;20056;-61
2023/10/07 12:56:47;;;;;;;12.47;4.77;;;;;;;;;;5067202;28;20055;-61
2023/10/07 12:59:23;;;;;;;16.30;4.93;;;;;;;;;;5066664;28;20100;-61
2023/10/07 13:01:56;;;;;;;21.13;5.63;;;;;;;;;;5067225;28;20139;-61
2023/10/07 13:04:26;;;;;;;15.03;4.73;;;;;;;;;;5067352;28;20037;-61
2023/10/07 13:07:03;;;;;;;14.37;5.23;;;;;;;;;;5067143;28;20048;-61
2023/10/07 13:09:33;;;;;;;15.50;5.17;;;;;;;;;;5069428;28;20797;-61
2023/10/07 13:11:59;;;;;;;11.80;4.43;;;;;;;;;;5070189;28;20048;-61
2023/10/07 13:14:28;;;;;;;13.97;4.33;;;;;;;;;;5070497;28;20080;-61
2023/10/07 13:16:58;;;;;;;20.07;5.00;;;;;;;;;;5070770;28;20443;-61
2023/10/07 13:19:27;;;;;;;14.00;5.07;;;;;;;;;;5070276;28;20422;-61
2023/10/07 13:22:01;;;;;;;15.27;5.27;;;;;;;;;;5069922;28;20049;-61
2023/10/07 13:24:29;;;;;;;14.67;5.10;;;;;;;;;;5070292;28;20059;-61
2023/10/07 13:26:55;;;;;;;13.03;4.93;;;;;;;;;;5070568;28;20411;-61
2023/10/07 13:29:21;;;;;;;16.80;4.00;;;;;;;;;;5070680;28;20394;-61
2023/10/07 13:31:47;;;;;;;11.17;4.63;;;;;;;;;;5069926;28;20052;-61
2023/10/07 13:34:16;;;;;;;13.37;5.00;;;;;;;;;;5069927;28;20040;-61
2023/10/07 13:36:43;;;;;;;15.70;5.87;;;;;;;;;;5070256;28;20896;-61
2023/10/07 13:39:15;;;;;;;14.53;4.90;;;;;;;;;;5070432;28;20056;-61
2023/10/07 13:41:43;;;;;;;16.67;4.72;;;;;;;;;;5070510;28;20044;-61
2023/10/07 13:44:09;;;;;;;12.97;4.77;;;;;;;;;;5070030;28;20049;-61
2023/10/07 13:46:36;;;;;;;15.90;4.70;;;;;;;;;;5070477;28;20043;-61
2023/10/07 13:49:02;;;;;;;12.60;5.20;;;;;;;;;;5069536;28;20059;-61
2023/10/07 13:51:31;;;;;;;18.47;6.20;;;;;;;;;;5070081;28;20084;-61
2023/10/07 13:56:47;;;;;;;14.83;5.27;;;;;;;;;;5069705;28;20056;-61
2023/10/07 13:59:14;;;;;;;16.73;4.23;;;;;;;;;;5070021;28;20094;-62
2023/10/07 14:01:44;;;;;;;14.10;5.03;;;;;;;;;;5069566;28;20090;-61
2023/10/07 14:04:15;;;;;;;15.60;4.63;;;;;;;;;;5069830;28;20490;-61
2023/10/07 14:06:41;;;;;;;9.13;4.27;;;;;;;;;;5070032;28;20075;-61
2023/10/07 14:09:16;;;;;;;11.13;4.10;;;;;;;;;;5063522;28;20049;-61
2023/10/07 14:11:45;;;;;;;17.27;4.67;;;;;;;;;;5057297;28;20135;-61
2023/10/07 14:14:11;;;;;;;18.50;5.50;;;;;;;;;;5049867;28;20079;-61
2023/10/07 14:16:37;;;;;;;13.27;4.93;;;;;;;;;;5069306;28;20040;-61
2023/10/07 14:19:06;;;;;;;11.80;4.33;;;;;;;;;;5057795;28;20084;-61
2023/10/07 14:21:32;;;;;;;16.20;5.43;;;;;;;;;;5048577;28;20055;-61
2023/10/07 14:24:04;;;;;;;15.50;5.47;;;;;;;;;;5048625;28;20048;-61
2023/10/07 14:26:34;;;;;;;18.33;5.43;;;;;;;;;;5057917;28;20045;-61
2023/10/07 14:29:07;;;;;;;19.67;5.60;;;;;;;;;;5069489;28;20533;-61
2023/10/07 14:31:34;;;;;;;18.70;5.38;;;;;;;;;;5056763;28;20066;-61
2023/10/07 14:34:03;;;;;;;20.33;6.67;;;;;;;;;;5061085;28;20060;-61
2023/10/07 14:36:29;;;;;;;16.93;5.10;;;;;;;;;;5049126;28;20359;-61
2023/10/07 14:38:55;;;;;;;18.43;6.03;;;;;;;;;;5062313;28;20052;-61
2023/10/07 14:41:21;;;;;;;11.07;4.40;;;;;;;;;;5064913;28;20052;-61
2023/10/07 14:43:47;;;;;;;14.17;4.93;;;;;;;;;;5049477;28;20108;-62
2023/10/07 14:46:14;;;;;;;20.97;6.00;;;;;;;;;;5049234;28;20049;-61
2023/10/07 14:48:46;;;;;;;17.27;5.60;;;;;;;;;;5049793;28;20053;-61
2023/10/07 14:51:12;;;;;;;19.38;4.70;;;;;;;;;;5049505;28;20128;-61
2023/10/07 14:53:39;;;;;;;12.97;4.80;;;;;;;;;;5049617;28;20081;-61
2023/10/07 14:56:14;;;;;;;17.87;5.30;;;;;;;;;;5053645;28;20463;-61
2023/10/07 14:58:40;;;;;;;16.53;4.87;;;;;;;;;;5049402;28;20477;-61
2023/10/07 15:01:06;;;;;;;16.73;4.83;;;;;;;;;;5049167;28;20128;-61
2023/10/07 15:03:32;;;;;;;16.57;5.67;;;;;;;;;;5049411;28;20116;-61
2023/10/07 15:06:08;;;;;;;13.40;5.30;;;;;;;;;;5056237;28;20583;-61
2023/10/07 15:08:35;;;;;;;18.30;5.80;;;;;;;;;;5048400;28;20044;-61
2023/10/07 15:11:03;;;;;;;16.70;5.00;;;;;;;;;;5048283;28;20525;-61
2023/10/07 15:13:30;;;;;;;13.73;5.10;;;;;;;;;;5059812;28;20510;-61
2023/10/07 15:15:58;;;;;;;17.77;5.90;;;;;;;;;;5068471;28;20556;-61
2023/10/07 15:18:25;;;;;;;16.13;4.67;;;;;;;;;;5068997;28;20677;-61
2023/10/07 15:20:51;;;;;;;16.27;6.33;;;;;;;;;;5061678;28;20147;-61
2023/10/07 15:23:17;;;;;;;20.13;5.07;;;;;;;;;;5057581;28;20124;-61
2023/10/07 15:25:45;;;;;;;16.83;5.93;;;;;;;;;;5057429;28;20050;-59
2023/10/07 15:28:13;;;;;;;24.67;5.97;;;;;;;;;;5057397;28;20052;-59